Time;durP1;ratioP1;P1;durP2;ratioP2;P2;SDS_P1;SDS_P2;PMS_P1;PMS_P2;Temp;Humidity;BMP_temperature;BMP_pressure;BME280_temperature;BME280_humidity;BME280_pressure;Samples;Min_cycle;Max_cycle;Signal;HPM_P1;HPM_P2
2023/01/02 00:02:22;;;;;;;12.65;3.90;;;;;;;11.96;100.00;101020.91;5070951;28;20028;-43
2023/01/02 00:04:47;;;;;;;14.13;4.40;;;;;;;11.96;100.00;101010.59;5077885;28;20057;-43
2023/01/02 00:07:12;;;;;;;10.23;4.25;;;;;;;11.97;100.00;101009.75;5066259;28;20032;-46
2023/01/02 00:09:38;;;;;;;6.85;3.72;;;;;;;11.97;100.00;101023.53;5065118;28;20028;-43
2023/01/02 00:12:04;;;;;;;11.70;4.50;;;;;;;11.99;100.00;101014.09;5068097;28;20024;-42
2023/01/02 00:14:29;;;;;;;7.75;4.07;;;;;;;12.01;100.00;101016.72;5068272;28;20028;-45
2023/01/02 00:16:54;;;;;;;10.25;3.95;;;;;;;12.03;100.00;101021.09;5074377;28;20417;-44
2023/01/02 00:19:20;;;;;;;10.40;3.83;;;;;;;12.05;100.00;101015.97;5074418;28;20024;-44
2023/01/02 00:21:45;;;;;;;9.00;3.63;;;;;;;12.08;100.00;101021.22;5070713;28;20028;-46
2023/01/02 00:24:10;;;;;;;12.52;4.15;;;;;;;12.08;100.00;101019.50;5079817;28;20039;-41
2023/01/02 00:26:36;;;;;;;10.30;3.80;;;;;;;12.09;100.00;101002.34;5075251;28;20036;-44
2023/01/02 00:29:01;;;;;;;8.02;3.60;;;;;;;12.11;100.00;101015.25;5072877;28;20088;-45
2023/01/02 00:31:26;;;;;;;10.05;3.80;;;;;;;12.13;100.00;101005.84;5070871;28;20485;-42
2023/01/02 00:33:52;;;;;;;10.63;4.00;;;;;;;12.14;100.00;101002.44;5073239;28;20028;-46
2023/01/02 00:36:17;;;;;;;10.50;3.65;;;;;;;12.12;100.00;100989.50;5073541;28;20445;-44
2023/01/02 00:38:43;;;;;;;10.68;4.00;;;;;;;12.12;100.00;100981.75;5062335;28;20537;-44
2023/01/02 00:41:08;;;;;;;8.68;3.83;;;;;;;12.15;100.00;100980.97;5072540;28;20032;-47
2023/01/02 00:43:34;;;;;;;13.00;3.95;;;;;;;12.16;100.00;100991.31;5068198;28;20120;-45
2023/01/02 00:46:00;;;;;;;13.90;3.85;;;;;;;12.16;100.00;100987.88;5064435;28;20044;-46
2023/01/02 00:48:25;;;;;;;11.52;4.18;;;;;;;12.17;100.00;100990.47;5067160;28;20102;-44
2023/01/02 00:50:50;;;;;;;10.43;3.53;;;;;;;12.18;100.00;100999.09;5068705;28;20393;-43
2023/01/02 00:53:16;;;;;;;10.98;4.18;;;;;;;12.19;100.00;100993.97;5069398;28;20056;-46
2023/01/02 00:55:45;;;;;;;9.30;4.00;;;;;;;12.20;100.00;100989.72;5072153;28;20033;-43
2023/01/02 00:58:10;;;;;;;9.43;4.18;;;;;;;12.21;100.00;100987.16;5070913;28;20187;-42
2023/01/02 01:00:36;;;;;;;11.95;4.22;;;;;;;12.21;100.00;100986.28;5070779;28;20144;-43
2023/01/02 01:03:01;;;;;;;12.13;4.00;;;;;;;12.20;100.00;100979.41;5065803;28;20068;-43
2023/01/02 01:05:28;;;;;;;11.10;4.28;;;;;;;12.21;100.00;100966.53;5065227;28;20102;-43
2023/01/02 01:07:55;;;;;;;11.50;4.32;;;;;;;12.22;100.00;100968.25;5069710;28;20498;-44
2023/01/02 01:10:21;;;;;;;13.55;3.95;;;;;;;12.23;100.00;100963.97;5067282;28;20027;-44
2023/01/02 01:12:47;;;;;;;11.77;4.10;;;;;;;12.22;100.00;100963.09;5063847;28;20056;-43
2023/01/02 01:15:12;;;;;;;12.98;4.32;;;;;;;12.26;100.00;100969.22;5070449;28;20616;-44
2023/01/02 01:17:38;;;;;;;9.80;4.35;;;;;;;12.27;100.00;100970.97;5069274;28;20535;-44
2023/01/02 01:20:03;;;;;;;13.73;4.25;;;;;;;12.27;100.00;100961.50;5070706;28;20055;-42
2023/01/02 01:22:29;;;;;;;9.70;4.18;;;;;;;12.30;100.00;100966.72;5071097;28;20404;-43
2023/01/02 01:24:54;;;;;;;13.70;3.90;;;;;;;12.30;100.00;100958.97;5072513;28;20021;-44
2023/01/02 01:27:20;;;;;;;14.43;4.30;;;;;;;12.31;100.00;100958.16;5072579;28;20438;-47
2023/01/02 01:29:45;;;;;;;12.02;3.85;;;;;;;12.32;100.00;100970.22;5061866;28;21096;-41
2023/01/02 01:32:10;;;;;;;13.43;3.75;;;;;;;12.34;100.00;100962.50;5067523;28;20046;-41
2023/01/02 01:34:36;;;;;;;11.07;3.40;;;;;;;12.33;100.00;100965.94;5066356;28;20043;-43
2023/01/02 01:37:01;;;;;;;9.98;3.60;;;;;;;12.34;100.00;100965.97;5071458;28;20040;-43
2023/01/02 01:39:26;;;;;;;12.02;3.90;;;;;;;12.35;100.00;100967.69;5069213;28;20071;-45
2023/01/02 01:41:52;;;;;;;13.98;4.35;;;;;;;12.35;100.00;100965.13;5065479;28;20031;-44
2023/01/02 01:44:40;;;;;;;10.20;3.60;;;;;;;12.40;100.00;100967.81;5068024;28;20032;-46
2023/01/02 01:47:17;;;;;;;10.40;3.53;;;;;;;12.40;100.00;100978.13;5064747;28;20127;-45
2023/01/02 01:49:43;;;;;;;11.77;3.45;;;;;;;12.37;100.00;100972.88;5069813;28;20150;-45
2023/01/02 01:52:13;;;;;;;12.38;3.80;;;;;;;12.39;100.00;100970.38;5074821;28;20037;-45
2023/01/02 01:54:45;;;;;;;12.20;3.65;;;;;;;12.41;100.00;100971.25;5074380;28;20013;-45
2023/01/02 01:57:16;;;;;;;10.30;3.25;;;;;;;12.40;100.00;100982.41;5075990;28;20163;-47
2023/01/02 01:59:41;;;;;;;10.10;3.30;;;;;;;12.42;100.00;100991.03;5073586;28;20513;-43
2023/01/02 02:02:07;;;;;;;9.73;3.13;;;;;;;12.41;100.00;100989.31;5073925;28;20040;-44
2023/01/02 02:04:33;;;;;;;10.57;3.40;;;;;;;12.41;100.00;100991.88;5071613;28;20123;-42
2023/01/02 02:06:58;;;;;;;11.95;3.67;;;;;;;12.40;100.00;100987.56;5068679;28;20370;-45
2023/01/02 02:09:32;;;;;;;11.82;3.20;;;;;;;12.41;100.00;100985.03;5065353;28;20035;-43
2023/01/02 02:11:57;;;;;;;11.88;3.60;;;;;;;12.40;100.00;100983.28;5066655;28;20635;-44
2023/01/02 02:14:22;;;;;;;12.73;3.65;;;;;;;12.39;100.00;100975.53;5068517;28;20023;-42
2023/01/02 02:17:15;;;;;;;11.95;3.45;;;;;;;12.43;100.00;100982.47;5070407;28;20101;-45
2023/01/02 02:20:07;;;;;;;11.80;3.45;;;;;;;12.42;100.00;100973.88;5068845;28;20430;-42
2023/01/02 02:23:18;;;;;;;8.60;3.20;;;;;;;12.45;100.00;100991.13;5074074;28;20032;-46
2023/01/02 02:25:53;;;;;;;10.18;3.25;;;;;;;12.44;100.00;100989.41;5067281;28;20058;-45
2023/01/02 02:28:36;;;;;;;10.90;3.15;;;;;;;12.45;100.00;100993.72;5076312;28;20029;-41
2023/01/02 02:31:13;;;;;;;10.32;3.60;;;;;;;12.46;100.00;100992.88;5072491;28;20031;-43
2023/01/02 02:33:57;;;;;;;9.30;3.40;;;;;;;12.46;100.00;100987.72;5069380;28;20488;-44
2023/01/02 02:36:39;;;;;;;13.02;3.30;;;;;;;12.45;100.00;100981.69;5071417;28;20103;-43
2023/01/02 02:39:10;;;;;;;11.82;3.53;;;;;;;12.47;100.00;100987.75;5069479;28;20444;-47
2023/01/02 02:42:14;;;;;;;12.95;3.05;;;;;;;12.45;100.00;100985.97;5066407;28;20484;-45
2023/01/02 02:44:40;;;;;;;11.57;3.65;;;;;;;12.44;100.00;100990.25;5045695;28;20033;-46
2023/01/02 02:47:13;;;;;;;8.98;3.25;;;;;;;12.45;100.00;100986.84;5060645;28;20096;-44
2023/01/02 02:49:57;;;;;;;10.02;3.15;;;;;;;12.47;100.00;100982.56;5069188;28;20028;-46
2023/01/02 02:52:30;;;;;;;8.73;3.20;;;;;;;12.45;100.00;100986.84;5069003;28;20373;-43
2023/01/02 02:55:05;;;;;;;10.93;3.17;;;;;;;12.45;100.00;100986.84;5070117;28;20055;-44
2023/01/02 02:57:32;;;;;;;9.75;3.17;;;;;;;12.45;100.00;100991.13;5072597;28;20110;-45
2023/01/02 02:59:57;;;;;;;9.73;2.90;;;;;;;12.48;100.00;100988.59;5067908;28;20508;-45
2023/01/02 03:02:22;;;;;;;10.90;3.20;;;;;;;12.45;100.00;100971.38;5064009;28;20032;-45
2023/01/02 03:04:59;;;;;;;11.43;3.15;;;;;;;12.47;100.00;100968.81;5074068;28;20031;-45
2023/01/02 03:07:51;;;;;;;9.20;3.50;;;;;;;12.47;100.00;100971.41;5074558;28;20505;-42
2023/01/02 03:10:49;;;;;;;9.48;3.10;;;;;;;12.49;100.00;100983.47;5063177;28;20048;-44
2023/01/02 03:13:38;;;;;;;12.38;3.50;;;;;;;12.49;100.00;100978.31;5069192;28;20115;-44
2023/01/02 03:16:06;;;;;;;8.40;3.15;;;;;;;12.50;100.00;100976.63;5073460;28;20024;-43
2023/01/02 03:18:44;;;;;;;9.10;3.20;;;;;;;12.50;100.00;100971.47;5077943;28;20031;-44
2023/01/02 03:21:11;;;;;;;10.07;2.80;;;;;;;12.49;100.00;100967.13;5068547;28;20424;-44
2023/01/02 03:23:48;;;;;;;8.93;3.10;;;;;;;12.50;100.00;100977.50;5072129;28;20539;-46
2023/01/02 03:26:21;;;;;;;10.38;3.78;;;;;;;12.49;100.00;100980.91;5071999;28;20036;-46
2023/01/02 03:28:53;;;;;;;13.68;3.30;;;;;;;12.49;100.00;100978.31;5066980;28;20446;-42
2023/01/02 03:31:21;;;;;;;10.40;3.22;;;;;;;12.47;100.00;100973.97;5069384;28;20035;-45
2023/01/02 03:33:53;;;;;;;11.05;3.28;;;;;;;12.48;100.00;100976.56;5067709;28;20476;-44
2023/01/02 03:36:23;;;;;;;8.95;3.00;;;;;;;12.47;100.00;100974.84;5073263;28;20028;-46
2023/01/02 03:39:08;;;;;;;9.98;3.20;;;;;;;12.50;100.00;100984.38;5062426;28;20466;-45
2023/01/02 03:41:56;;;;;;;9.73;2.85;;;;;;;12.49;100.00;100977.44;5065091;28;20473;-46
2023/01/02 03:44:29;;;;;;;5.80;3.00;;;;;;;12.48;100.00;100978.28;5074932;28;20052;-45
2023/01/02 03:47:02;;;;;;;6.85;2.67;;;;;;;12.50;100.00;100986.94;5064616;28;20409;-46
2023/01/02 03:49:37;;;;;;;8.77;3.30;;;;;;;12.50;100.00;100995.56;5066240;28;20020;-46
2023/01/02 03:52:03;;;;;;;7.22;2.67;;;;;;;12.48;100.00;100994.63;5064138;28;20063;-46
2023/01/02 03:54:29;;;;;;;8.35;3.15;;;;;;;12.49;100.00;100993.78;5063659;28;20119;-42
2023/01/02 03:57:13;;;;;;;9.18;3.10;;;;;;;12.51;100.00;100999.00;5070465;28;20050;-47
2023/01/02 04:00:00;;;;;;;8.57;3.10;;;;;;;12.52;100.00;101003.31;5066533;28;20784;-45
2023/01/02 04:02:38;;;;;;;7.85;2.92;;;;;;;12.50;100.00;101005.00;5066982;28;20465;-44
2023/01/02 04:05:29;;;;;;;6.70;2.55;;;;;;;12.54;100.00;101006.78;5066035;28;20028;-45
2023/01/02 04:08:03;;;;;;;7.63;2.92;;;;;;;12.52;100.00;101006.78;5060698;28;20121;-44
2023/01/02 04:10:29;;;;;;;8.55;2.90;;;;;;;12.50;100.00;101005.00;5066269;28;20028;-43
2023/01/02 04:13:00;;;;;;;10.70;3.22;;;;;;;12.50;100.00;100999.84;5066014;28;20509;-44
2023/01/02 04:15:28;;;;;;;10.27;2.95;;;;;;;12.49;100.00;101016.13;5065716;28;20557;-48
2023/01/02 04:18:10;;;;;;;9.80;3.33;;;;;;;12.51;100.00;101001.59;5065149;28;20040;-42
2023/01/02 04:20:40;;;;;;;10.95;2.97;;;;;;;12.49;100.00;100998.06;5067245;28;20039;-45
2023/01/02 04:23:13;;;;;;;8.95;2.80;;;;;;;12.49;100.00;100998.06;5061598;28;20035;-43
2023/01/02 04:25:46;;;;;;;9.38;3.28;;;;;;;12.48;100.00;101006.66;5064678;28;20031;-44
2023/01/02 04:28:22;;;;;;;8.32;3.00;;;;;;;12.47;100.00;101010.94;5070203;28;20092;-44
2023/01/02 04:30:54;;;;;;;11.18;2.88;;;;;;;12.48;100.00;101019.56;5062858;28;20074;-46
2023/01/02 04:33:22;;;;;;;10.38;3.00;;;;;;;12.47;100.00;101028.13;5063727;28;20031;-47
2023/01/02 04:35:48;;;;;;;8.35;3.90;;;;;;;12.43;100.00;101022.03;5066618;28;20024;-42
2023/01/02 04:38:13;;;;;;;10.43;3.13;;;;;;;12.42;100.00;101022.88;5068643;28;20503;-46
2023/01/02 04:40:39;;;;;;;9.38;3.10;;;;;;;12.45;100.00;101024.66;5067149;28;20031;-42
2023/01/02 04:43:16;;;;;;;9.65;3.35;;;;;;;12.44;100.00;101033.25;5069655;28;20435;-45
2023/01/02 04:45:41;;;;;;;10.38;3.17;;;;;;;12.42;100.00;101027.16;5069776;28;20028;-44
2023/01/02 04:48:06;;;;;;;10.27;3.00;;;;;;;12.42;100.00;101038.34;5070035;28;20032;-45
2023/01/02 04:50:32;;;;;;;11.40;3.50;;;;;;;12.43;100.00;101031.47;5069017;28;20057;-45
2023/01/02 04:52:57;;;;;;;8.30;2.92;;;;;;;12.42;100.00;101032.31;5068072;28;20025;-43
2023/01/02 04:55:23;;;;;;;7.07;2.97;;;;;;;12.42;100.00;101037.47;5068928;28;20036;-45
2023/01/02 04:57:48;;;;;;;11.55;3.42;;;;;;;12.42;100.00;101032.31;5070004;28;20467;-45
2023/01/02 05:00:14;;;;;;;8.52;3.20;;;;;;;12.42;100.00;101037.47;5065085;28;20034;-45
2023/01/02 05:02:40;;;;;;;10.40;3.25;;;;;;;12.42;100.00;101034.88;5066092;28;20065;-44
2023/01/02 05:05:07;;;;;;;12.95;3.33;;;;;;;12.43;100.00;101046.94;5061404;28;20031;-45
2023/01/02 05:07:33;;;;;;;9.88;2.97;;;;;;;12.41;100.00;101044.34;5073486;28;20025;-43
2023/01/02 05:09:59;;;;;;;9.05;2.63;;;;;;;12.43;100.00;101054.69;5070372;28;20115;-43
2023/01/02 05:12:24;;;;;;;8.70;2.85;;;;;;;12.42;100.00;101048.66;5058735;28;20569;-44
2023/01/02 05:14:49;;;;;;;12.45;3.60;;;;;;;12.44;100.00;101051.28;5066472;28;20082;-45
2023/01/02 05:17:15;;;;;;;6.22;3.10;;;;;;;12.43;100.00;101055.53;5068501;28;20040;-47
2023/01/02 05:19:40;;;;;;;9.70;2.95;;;;;;;12.45;100.00;101050.44;5075835;28;20024;-42
2023/01/02 05:24:49;;;;;;;8.90;2.90;;;;;;;12.45;100.00;101055.59;5078061;28;20072;-43
2023/01/02 05:27:15;;;;;;;9.45;2.95;;;;;;;12.45;100.00;101058.19;5074231;28;20036;-43
2023/01/02 05:29:40;;;;;;;10.18;2.58;;;;;;;12.46;100.00;101059.94;5068935;28;20135;-43
2023/01/02 05:32:05;;;;;;;9.63;3.15;;;;;;;12.44;100.00;101057.31;5070849;28;20286;-45
2023/01/02 05:34:31;;;;;;;7.90;3.58;;;;;;;12.45;100.00;101053.03;5073357;28;20125;-46
2023/01/02 05:36:56;;;;;;;10.70;2.80;;;;;;;12.45;100.00;101058.19;5070420;28;20041;-43
2023/01/02 05:39:21;;;;;;;10.07;2.83;;;;;;;12.46;100.00;101071.09;5075722;28;20529;-45
2023/01/02 05:41:47;;;;;;;8.00;2.80;;;;;;;12.47;100.00;101074.56;5076355;28;20028;-45
2023/01/02 05:44:12;;;;;;;9.73;2.60;;;;;;;12.47;100.00;101085.75;5072614;28;20036;-44
2023/01/02 05:46:38;;;;;;;9.05;2.65;;;;;;;12.48;100.00;101086.63;5066879;28;20020;-46
2023/01/02 05:49:05;;;;;;;5.05;2.35;;;;;;;12.47;100.00;101088.31;5070109;28;20028;-48
2023/01/02 05:51:31;;;;;;;8.73;2.65;;;;;;;12.47;100.00;101093.47;5078961;28;20025;-44
2023/01/02 05:53:56;;;;;;;8.63;2.75;;;;;;;12.47;100.00;101097.78;5076346;28;20030;-42
2023/01/02 05:56:21;;;;;;;8.32;2.50;;;;;;;12.47;100.00;101092.63;5065344;28;20035;-45
2023/01/02 05:58:49;;;;;;;9.10;2.50;;;;;;;12.47;100.00;101101.22;5064867;28;20072;-45
2023/01/02 06:01:20;;;;;;;9.02;2.65;;;;;;;12.47;100.00;101095.19;5069584;28;20844;-43
2023/01/02 06:03:47;;;;;;;8.10;2.50;;;;;;;12.47;100.00;101103.78;5070388;28;20028;-42
2023/01/02 06:06:13;;;;;;;6.55;2.45;;;;;;;12.46;100.00;101096.91;5069903;28;20036;-44
2023/01/02 06:08:39;;;;;;;6.85;2.45;;;;;;;12.47;100.00;101097.78;5077648;28;20064;-45
2023/01/02 06:11:06;;;;;;;7.43;2.40;;;;;;;12.45;100.00;101110.63;5077931;28;20055;-47
2023/01/02 06:13:34;;;;;;;6.95;2.08;;;;;;;12.46;100.00;101114.97;5062734;28;20028;-45
2023/01/02 06:16:01;;;;;;;4.60;2.00;;;;;;;12.43;100.00;101107.13;5070456;28;20052;-44
2023/01/02 06:18:27;;;;;;;6.63;2.42;;;;;;;12.41;100.00;101111.38;5066797;28;20806;-42
2023/01/02 06:20:57;;;;;;;7.07;2.25;;;;;;;12.43;100.00;101132.03;5074328;28;20036;-43
2023/01/02 06:23:23;;;;;;;9.82;2.40;;;;;;;12.40;100.00;101138.00;5076107;28;20054;-43
2023/01/02 06:25:48;;;;;;;10.13;2.60;;;;;;;12.39;100.00;101172.38;5077748;28;20499;-46
2023/01/02 06:28:13;;;;;;;4.22;1.85;;;;;;;12.35;100.00;101198.91;5075708;28;20028;-43
2023/01/02 06:30:39;;;;;;;2.33;1.58;;;;;;;12.25;100.00;101195.19;5074058;28;20060;-44
2023/01/02 06:33:04;;;;;;;2.40;1.20;;;;;;;12.18;100.00;101201.03;5067375;28;20064;-45
2023/01/02 06:35:30;;;;;;;2.53;1.00;;;;;;;12.15;100.00;101213.00;5068261;28;20119;-44
2023/01/02 06:37:55;;;;;;;1.52;1.13;;;;;;;12.11;99.09;101213.72;5067028;28;20103;-46
2023/01/02 06:40:20;;;;;;;1.77;0.65;;;;;;;12.00;97.85;101216.88;5067892;28;20066;-44
2023/01/02 06:42:45;;;;;;;1.45;0.70;;;;;;;11.97;97.80;101229.69;5071105;28;20115;-44
2023/01/02 06:45:11;;;;;;;1.30;0.47;;;;;;;11.95;97.51;101235.63;5069344;28;20055;-46
2023/01/02 06:47:36;;;;;;;0.30;0.30;;;;;;;11.84;96.76;101237.03;5075781;28;20040;-44
2023/01/02 06:50:02;;;;;;;0.50;0.43;;;;;;;11.86;96.99;101246.53;5069428;28;20024;-44
2023/01/02 06:52:28;;;;;;;0.95;0.50;;;;;;;11.86;97.35;101250.81;5072358;28;20028;-44
2023/01/02 06:54:54;;;;;;;2.28;0.40;;;;;;;11.77;96.89;101262.59;5075435;28;20035;-43
2023/01/02 06:57:19;;;;;;;1.10;0.40;;;;;;;11.79;96.71;101271.22;5065544;28;20028;-42
2023/01/02 06:59:45;;;;;;;1.38;0.50;;;;;;;11.75;96.82;101271.94;5069999;28;20377;-43
2023/01/02 07:02:11;;;;;;;0.50;0.30;;;;;;;11.68;96.82;101275.19;5068594;28;20029;-42
2023/01/02 07:04:36;;;;;;;1.10;0.88;;;;;;;11.62;96.82;101282.72;5070567;28;20123;-47
2023/01/02 07:07:02;;;;;;;1.10;1.00;;;;;;;11.59;97.21;101287.81;5075054;28;20027;-45
2023/01/02 07:09:27;;;;;;;2.10;1.23;;;;;;;11.59;97.22;101298.09;5063567;28;20110;-48
2023/01/02 07:11:53;;;;;;;1.50;1.30;;;;;;;11.54;96.45;101310.81;5073265;28;20059;-42
2023/01/02 07:14:18;;;;;;;1.88;1.38;;;;;;;11.48;96.39;101312.34;5068025;28;20475;-45
2023/01/02 07:16:43;;;;;;;1.83;1.20;;;;;;;11.52;96.98;101316.75;5077163;28;20092;-42
2023/01/02 07:19:09;;;;;;;0.80;0.80;;;;;;;11.49;96.88;101327.84;5076364;28;20041;-43
2023/01/02 07:21:34;;;;;;;1.20;1.00;;;;;;;11.45;96.42;101327.69;5071190;28;20036;-42
2023/01/02 07:23:59;;;;;;;3.80;1.20;;;;;;;11.45;96.96;101333.69;5072402;28;20057;-44
2023/01/02 07:26:25;;;;;;;1.33;1.20;;;;;;;11.43;96.92;101352.53;5074990;28;20055;-43
2023/01/02 07:28:50;;;;;;;1.60;1.35;;;;;;;11.33;96.57;101355.59;5070489;28;20053;-44
2023/01/02 07:31:17;;;;;;;2.15;1.35;;;;;;;11.34;96.61;101359.94;5071606;28;20401;-47
2023/01/02 07:33:43;;;;;;;1.90;1.55;;;;;;;11.30;97.53;101373.53;5072092;28;20032;-42
2023/01/02 07:36:14;;;;;;;1.98;1.65;;;;;;;11.32;97.63;101379.59;5081820;28;20036;-43
2023/01/02 07:38:40;;;;;;;1.80;1.70;;;;;;;11.29;97.83;101377.81;5072605;28;20028;-48
2023/01/02 07:41:17;;;;;;;1.98;1.70;;;;;;;11.27;97.97;101382.03;5073900;28;20028;-43
2023/01/02 07:43:44;;;;;;;2.55;1.70;;;;;;;11.29;97.85;101380.41;5073672;28;20101;-47
2023/01/02 07:46:11;;;;;;;2.10;1.90;;;;;;;11.30;98.03;101389.00;5065468;28;20036;-43
2023/01/02 07:48:37;;;;;;;3.22;1.80;;;;;;;11.27;97.56;101400.91;5061814;28;21179;-44
2023/01/02 07:51:04;;;;;;;2.20;1.98;;;;;;;11.24;96.76;101400.81;5064935;28;21120;-43
2023/01/02 07:53:30;;;;;;;2.70;1.52;;;;;;;11.27;96.67;101412.91;5070143;28;20494;-43
2023/01/02 07:55:56;;;;;;;1.73;1.63;;;;;;;11.22;96.78;101422.19;5065933;28;20059;-47
2023/01/02 07:58:23;;;;;;;2.45;2.03;;;;;;;11.17;97.61;101428.88;5068938;28;20024;-46
2023/01/02 08:00:48;;;;;;;2.10;1.90;;;;;;;11.23;97.29;101440.28;5072284;28;20024;-43
2023/01/02 08:03:14;;;;;;;2.90;2.20;;;;;;;11.19;97.75;101435.81;5067418;28;20048;-42
2023/01/02 08:05:39;;;;;;;2.22;1.95;;;;;;;11.19;97.83;101440.97;5062816;28;20397;-43
2023/01/02 08:08:05;;;;;;;2.15;1.95;;;;;;;11.15;97.82;101444.25;5065029;28;20111;-46
2023/01/02 08:10:30;;;;;;;2.83;2.15;;;;;;;11.12;97.82;101457.03;5069270;28;20523;-44
2023/01/02 08:12:58;;;;;;;2.20;2.00;;;;;;;11.15;97.89;101463.97;5065450;28;20012;-44
2023/01/02 08:15:24;;;;;;;2.05;1.85;;;;;;;11.13;98.28;101469.06;5070610;28;20059;-43
2023/01/02 08:17:50;;;;;;;2.30;2.10;;;;;;;11.10;98.30;101476.72;5066047;28;20047;-45
2023/01/02 08:20:15;;;;;;;3.25;2.20;;;;;;;11.12;98.33;101482.78;5068399;28;20079;-43
2023/01/02 08:22:41;;;;;;;2.20;2.00;;;;;;;11.10;97.95;101492.16;5066880;28;20040;-45
2023/01/02 08:25:08;;;;;;;2.70;1.60;;;;;;;11.14;98.43;101487.97;5052057;28;20028;-42
2023/01/02 08:27:33;;;;;;;2.38;1.60;;;;;;;11.15;98.52;101494.88;5064269;28;20056;-45
2023/01/02 08:29:58;;;;;;;2.50;1.70;;;;;;;11.09;98.41;101490.38;5065401;28;20040;-43
2023/01/02 08:32:24;;;;;;;2.20;1.70;;;;;;;11.00;98.52;101495.19;5067073;28;20473;-41
2023/01/02 08:34:49;;;;;;;2.30;1.90;;;;;;;11.00;98.34;101502.91;5081853;28;20024;-46
2023/01/02 08:37:15;;;;;;;2.83;1.63;;;;;;;11.08;98.42;101505.75;5068340;28;20060;-42
2023/01/02 08:39:40;;;;;;;3.15;1.33;;;;;;;11.02;97.86;101509.00;5066440;28;20068;-42
2023/01/02 08:42:06;;;;;;;1.60;1.38;;;;;;;10.99;97.65;101509.78;5063369;28;20397;-47
2023/01/02 08:44:33;;;;;;;1.80;1.40;;;;;;;11.01;97.73;101507.25;5080699;28;20077;-45
2023/01/02 08:46:58;;;;;;;1.63;1.33;;;;;;;10.98;97.40;101514.84;5068152;28;20032;-43
2023/01/02 08:49:23;;;;;;;1.95;1.52;;;;;;;11.01;97.12;101527.84;5061962;28;20040;-42
2023/01/02 08:51:49;;;;;;;2.13;1.45;;;;;;;10.95;97.27;101525.03;5070100;28;20040;-43
2023/01/02 08:54:14;;;;;;;3.47;1.58;;;;;;;10.99;96.65;101532.06;5071885;28;20149;-43
2023/01/02 08:56:40;;;;;;;2.58;1.70;;;;;;;11.00;96.45;101541.53;5070742;28;20073;-44
2023/01/02 08:59:10;;;;;;;2.03;1.55;;;;;;;11.02;96.61;101550.16;5065504;28;20034;-43
2023/01/02 09:01:37;;;;;;;1.88;1.50;;;;;;;10.96;96.60;101555.97;5076909;28;20030;-42
2023/01/02 09:04:03;;;;;;;2.60;2.10;;;;;;;10.95;96.59;101555.91;5073158;28;20067;-44
2023/01/02 09:06:30;;;;;;;2.78;2.20;;;;;;;10.92;96.49;101553.22;5074887;28;20110;-46
2023/01/02 09:08:57;;;;;;;2.75;2.40;;;;;;;10.97;96.06;101559.41;5075356;28;20423;-45
2023/01/02 09:11:28;;;;;;;3.38;2.47;;;;;;;10.95;95.70;101563.63;5071990;28;20048;-44
2023/01/02 09:13:54;;;;;;;3.97;3.17;;;;;;;10.86;95.91;101566.75;5068775;28;20024;-43
2023/01/02 09:16:21;;;;;;;3.35;2.83;;;;;;;10.84;95.66;101570.06;5060863;28;20944;-45
2023/01/02 09:18:47;;;;;;;5.05;3.00;;;;;;;10.80;95.20;101578.47;5067364;28;20028;-45
2023/01/02 09:21:12;;;;;;;4.45;3.13;;;;;;;10.82;95.32;101588.03;5062399;28;20041;-45
2023/01/02 09:23:38;;;;;;;4.28;2.70;;;;;;;10.83;94.81;101592.34;5072648;28;20029;-46
2023/01/02 09:26:05;;;;;;;5.75;2.92;;;;;;;10.87;94.98;101596.78;5065769;28;20037;-45
2023/01/02 09:28:33;;;;;;;7.03;2.95;;;;;;;10.80;94.72;101614.47;5068100;28;20496;-46
2023/01/02 09:30:58;;;;;;;6.47;3.00;;;;;;;10.82;94.30;101616.31;5066646;28;20059;-44
2023/01/02 09:33:24;;;;;;;5.10;2.58;;;;;;;10.81;94.39;101618.84;5063609;28;20742;-47
2023/01/02 09:35:50;;;;;;;4.97;2.50;;;;;;;10.79;93.96;101617.88;5068303;28;20047;-43
2023/01/02 09:38:15;;;;;;;7.10;2.45;;;;;;;10.80;93.56;101619.63;5064909;28;20060;-45
2023/01/02 09:40:51;;;;;;;6.00;2.45;;;;;;;10.81;94.44;101629.13;5065843;28;20140;-44
2023/01/02 09:43:26;;;;;;;6.22;2.40;;;;;;;10.76;94.52;101634.09;5066857;28;20029;-45
2023/01/02 09:45:54;;;;;;;6.82;2.47;;;;;;;10.74;93.82;101634.03;5064049;28;20032;-46
2023/01/02 09:48:21;;;;;;;7.15;2.67;;;;;;;10.74;93.93;101636.59;5062944;28;20429;-45
2023/01/02 09:50:48;;;;;;;5.22;2.50;;;;;;;10.74;93.67;101636.59;5062098;28;20086;-44
2023/01/02 09:53:14;;;;;;;4.18;2.65;;;;;;;10.72;93.52;101639.91;5065113;28;20055;-49
2023/01/02 09:55:56;;;;;;;4.13;2.22;;;;;;;10.81;94.57;101644.56;5063436;28;20047;-47
2023/01/02 09:58:39;;;;;;;4.88;2.30;;;;;;;10.83;94.51;101642.91;5067504;28;20039;-45
2023/01/02 10:01:07;;;;;;;6.13;2.58;;;;;;;10.77;94.30;101643.56;5061755;28;20048;-45
2023/01/02 10:03:49;;;;;;;5.05;2.38;;;;;;;10.84;94.72;101642.97;5066655;28;20039;-44
2023/01/02 10:06:20;;;;;;;6.55;2.40;;;;;;;10.85;94.15;101651.56;5063431;28;20028;-48
2023/01/02 10:08:57;;;;;;;4.78;2.20;;;;;;;10.81;94.17;101648.00;5063586;28;20036;-46
2023/01/02 10:11:47;;;;;;;3.90;2.30;;;;;;;10.88;93.74;101657.72;5072757;28;20039;-46
2023/01/02 10:14:45;;;;;;;4.25;2.03;;;;;;;10.85;94.18;101649.88;5068222;28;20480;-48
2023/01/02 10:17:14;;;;;;;5.47;2.20;;;;;;;10.85;93.74;101649.00;5065357;28;20937;-44
2023/01/02 10:19:52;;;;;;;5.03;2.30;;;;;;;10.82;93.69;101659.19;5067486;28;20029;-45
2023/01/02 10:22:44;;;;;;;3.60;2.10;;;;;;;10.91;94.06;101652.69;5066169;28;20048;-45
2023/01/02 10:25:18;;;;;;;5.55;2.05;;;;;;;10.86;93.65;101653.31;5065013;28;20028;-47
2023/01/02 10:28:12;;;;;;;5.63;2.15;;;;;;;10.95;93.71;101658.84;5067825;28;20586;-46
2023/01/02 10:30:43;;;;;;;5.47;2.45;;;;;;;10.92;93.42;101654.47;5072686;28;20795;-46
2023/01/02 10:33:44;;;;;;;6.85;2.40;;;;;;;10.98;93.86;101661.50;5070713;28;20056;-46
2023/01/02 10:36:34;;;;;;;5.60;2.40;;;;;;;10.99;93.74;101661.59;5069630;28;20503;-43
2023/01/02 10:39:03;;;;;;;4.75;2.17;;;;;;;10.91;92.63;101669.81;5068654;28;20095;-46
2023/01/02 10:41:30;;;;;;;5.30;2.40;;;;;;;10.87;93.17;101681.69;5073100;28;20515;-42
2023/01/02 10:44:02;;;;;;;4.32;2.17;;;;;;;10.96;93.33;101681.19;5069823;28;20124;-46
2023/01/02 10:46:33;;;;;;;5.00;2.80;;;;;;;10.93;92.88;101687.09;5067405;28;20097;-43
2023/01/02 10:48:59;;;;;;;4.35;2.42;;;;;;;10.92;92.81;101675.06;5067287;28;20032;-42
2023/01/02 10:51:25;;;;;;;4.95;3.20;;;;;;;10.92;92.92;101672.47;5072408;28;20508;-44
2023/01/02 10:54:05;;;;;;;6.72;3.08;;;;;;;10.93;92.81;101671.66;5068356;28;20020;-44
2023/01/02 10:56:33;;;;;;;4.88;3.00;;;;;;;10.88;93.15;101683.44;5069889;28;20033;-43
2023/01/02 10:59:00;;;;;;;5.83;3.37;;;;;;;10.88;92.75;101685.16;5067076;28;20028;-44
2023/01/02 11:01:26;;;;;;;7.60;3.53;;;;;;;10.89;93.11;101684.31;5068887;28;20344;-46
2023/01/02 11:03:54;;;;;;;8.23;3.53;;;;;;;10.94;93.22;101685.41;5074646;28;20036;-44
2023/01/02 11:06:22;;;;;;;8.23;3.50;;;;;;;10.94;93.19;101695.69;5068841;28;20016;-44
2023/01/02 11:09:16;;;;;;;5.73;3.80;;;;;;;11.02;93.66;101704.56;5073067;28;20031;-45
2023/01/02 11:11:54;;;;;;;7.05;4.22;;;;;;;10.96;92.96;101699.19;5066211;28;20431;-44
2023/01/02 11:14:22;;;;;;;7.13;4.43;;;;;;;10.90;92.16;101709.25;5073809;28;20024;-46
2023/01/02 11:16:49;;;;;;;7.38;4.80;;;;;;;10.91;92.79;101717.00;5067703;28;20039;-42
2023/01/02 11:19:22;;;;;;;6.60;4.70;;;;;;;10.98;93.28;101706.16;5067048;28;20036;-45
2023/01/02 11:21:48;;;;;;;8.95;4.80;;;;;;;10.93;92.66;101709.38;5068109;28;20028;-44
2023/01/02 11:24:18;;;;;;;6.68;4.57;;;;;;;10.97;92.40;101708.66;5068190;28;20481;-44
2023/01/02 11:26:46;;;;;;;8.77;5.10;;;;;;;10.95;92.44;101707.72;5069527;28;20025;-43
2023/01/02 11:29:16;;;;;;;9.32;4.93;;;;;;;10.97;92.39;101706.09;5068024;28;20485;-43
2023/01/02 11:31:47;;;;;;;8.57;5.35;;;;;;;10.97;92.46;101712.09;5065160;28;20043;-42
2023/01/02 11:34:21;;;;;;;8.73;5.50;;;;;;;10.94;91.47;101714.56;5070932;28;20524;-42